Time;durP1;ratioP1;P1;durP2;ratioP2;P2;SDS_P1;SDS_P2;PMS_P1;PMS_P2;Temp;Humidity;BMP_temperature;BMP_pressure;BME280_temperature;BME280_humidity;BME280_pressure;Samples;Min_cycle;Max_cycle;Signal;HPM_P1;HPM_P2
2022/03/02 00:01:01;;;;;;;19.07;13.22;;;;;;;0.05;74.84;100411.69;1857982;77;21089;-75
2022/03/02 00:03:27;;;;;;;21.42;12.37;;;;;;;0.06;74.93;100400.51;1856992;77;21055;-75
2022/03/02 00:05:54;;;;;;;19.27;12.65;;;;;;;0.04;74.98;100403.06;1857105;77;21034;-75
2022/03/02 00:08:20;;;;;;;16.67;11.50;;;;;;;0.03;74.98;100401.30;1857110;77;21562;-75
2022/03/02 00:10:47;;;;;;;19.37;12.00;;;;;;;0.01;75.05;100396.95;1855757;77;21617;-75
2022/03/02 00:13:13;;;;;;;21.15;13.03;;;;;;;0.01;75.09;100395.22;1856187;75;21109;-75
2022/03/02 00:15:41;;;;;;;20.97;11.50;;;;;;;0.01;75.14;100393.93;1838957;77;21098;-75
2022/03/02 00:18:07;;;;;;;19.27;13.13;;;;;;;-0.02;75.18;100383.11;1856503;77;21140;-75
2022/03/02 00:20:34;;;;;;;21.40;12.10;;;;;;;-0.03;75.21;100381.35;1857466;76;21577;-75
2022/03/02 00:23:09;;;;;;;20.57;12.73;;;;;;;-0.04;75.27;100381.31;1837156;77;21095;-75
2022/03/02 00:25:39;;;;;;;20.70;13.43;;;;;;;-0.02;75.30;100379.23;1830087;77;21114;-76
2022/03/02 00:28:06;;;;;;;23.40;14.38;;;;;;;-0.02;75.33;100372.77;1824780;77;20985;-75
2022/03/02 00:30:32;;;;;;;25.43;13.90;;;;;;;0.01;75.43;100374.95;1836751;77;21588;-75
2022/03/02 00:32:59;;;;;;;23.90;12.98;;;;;;;-0.01;75.49;100370.61;1827431;76;21239;-75
2022/03/02 00:35:26;;;;;;;23.00;12.37;;;;;;;-0.04;75.52;100360.62;1832603;77;22122;-75
2022/03/02 00:37:52;;;;;;;24.43;13.85;;;;;;;-0.02;75.57;100363.71;1842516;77;21071;-76
2022/03/02 00:40:19;;;;;;;24.02;14.28;;;;;;;-0.03;75.66;100358.06;1826463;77;21048;-72
2022/03/02 00:42:46;;;;;;;25.43;14.83;;;;;;;-0.02;75.67;100355.05;1840080;77;21043;-75
2022/03/02 00:45:13;;;;;;;24.72;13.85;;;;;;;-0.02;75.71;100355.05;1823874;77;22166;-74
2022/03/02 00:47:39;;;;;;;27.73;14.07;;;;;;;-0.05;75.79;100345.53;1836313;77;21052;-76
2022/03/02 00:50:08;;;;;;;24.18;13.83;;;;;;;-0.04;75.82;100338.20;1820767;78;21096;-73
2022/03/02 00:52:34;;;;;;;25.30;13.58;;;;;;;-0.04;75.89;100333.02;1774263;78;20997;-74
2022/03/02 00:55:02;;;;;;;26.25;13.75;;;;;;;-0.02;75.90;100339.13;1780110;78;21088;-74
2022/03/02 00:57:31;;;;;;;26.30;14.28;;;;;;;0.00;75.94;100331.41;1762709;80;22596;-74
2022/03/02 00:59:58;;;;;;;26.45;14.20;;;;;;;0.01;75.98;100333.56;1741802;81;20976;-74
2022/03/02 01:02:24;;;;;;;25.72;14.53;;;;;;;0.03;76.01;100331.87;1763433;81;21078;-74
2022/03/02 01:04:51;;;;;;;26.52;13.68;;;;;;;0.01;76.01;100333.56;1769849;80;21024;-75
2022/03/02 01:07:17;;;;;;;26.45;15.38;;;;;;;0.02;76.09;100331.41;1755829;81;21126;-73
2022/03/02 01:09:43;;;;;;;29.75;15.50;;;;;;;0.01;76.09;100327.09;1740276;81;21122;-73
2022/03/02 01:12:10;;;;;;;24.18;14.50;;;;;;;0.02;76.12;100322.35;1745640;80;21091;-73
2022/03/02 01:14:36;;;;;;;23.57;14.65;;;;;;;0.03;76.13;100321.09;1762248;81;20996;-74
2022/03/02 01:17:03;;;;;;;29.60;15.78;;;;;;;0.03;76.16;100320.23;1747503;81;21067;-74
2022/03/02 01:19:30;;;;;;;25.88;14.70;;;;;;;0.03;76.27;100322.81;1753016;81;21326;-73
2022/03/02 01:21:58;;;;;;;28.85;16.17;;;;;;;0.01;76.34;100303.81;1759501;80;20995;-74
2022/03/02 01:24:24;;;;;;;31.27;16.77;;;;;;;-0.02;76.46;100321.02;1748763;82;21535;-74
2022/03/02 01:26:51;;;;;;;32.80;16.62;;;;;;;-0.05;76.53;100310.60;1792999;79;21498;-73
2022/03/02 01:29:28;;;;;;;33.53;16.57;;;;;;;-0.06;76.60;100302.80;1771275;80;21115;-73
2022/03/02 01:32:10;;;;;;;30.82;15.75;;;;;;;-0.05;76.65;100297.67;1781076;79;21842;-73
2022/03/02 01:34:53;;;;;;;31.85;16.52;;;;;;;-0.02;76.80;100298.13;1774185;79;22310;-73
2022/03/02 01:37:19;;;;;;;33.65;17.37;;;;;;;-0.02;76.88;100291.66;1794907;79;21052;-74
2022/03/02 01:39:46;;;;;;;30.60;16.60;;;;;;;-0.04;76.94;100290.34;1740792;81;21062;-74
2022/03/02 01:42:12;;;;;;;30.97;16.85;;;;;;;-0.04;76.98;100289.05;1798972;79;21013;-74
2022/03/02 01:44:38;;;;;;;31.30;16.35;;;;;;;-0.02;77.04;100295.15;1806491;78;21004;-74
2022/03/02 01:47:05;;;;;;;36.98;18.02;;;;;;;-0.01;77.08;100296.02;1787094;79;21119;-74
2022/03/02 01:49:32;;;;;;;35.52;16.93;;;;;;;0.02;77.10;100295.19;1784995;79;21095;-75
2022/03/02 01:51:58;;;;;;;31.75;16.90;;;;;;;0.01;77.17;100294.33;1809174;79;21020;-74
2022/03/02 01:54:25;;;;;;;35.33;17.67;;;;;;;0.01;77.21;100289.58;1804910;79;21064;-74
2022/03/02 01:56:52;;;;;;;36.65;18.12;;;;;;;-0.01;77.27;100286.52;1807959;79;20994;-75
2022/03/02 01:59:18;;;;;;;36.88;17.42;;;;;;;0.02;77.42;100290.02;1797339;78;21010;-75
2022/03/02 02:01:45;;;;;;;36.38;18.02;;;;;;;0.00;77.42;100292.59;1821977;78;21430;-75
2022/03/02 02:04:12;;;;;;;36.15;18.00;;;;;;;0.02;77.48;100291.30;1764428;79;21096;-74
2022/03/02 02:06:38;;;;;;;35.52;18.45;;;;;;;0.02;77.49;100279.66;1782339;79;21047;-75
2022/03/02 02:09:06;;;;;;;36.60;18.45;;;;;;;0.03;77.52;100280.13;1780775;79;21061;-74
2022/03/02 02:11:33;;;;;;;31.20;17.65;;;;;;;0.02;77.53;100279.66;1779691;79;21526;-74
2022/03/02 02:13:59;;;;;;;33.88;18.05;;;;;;;0.02;77.56;100277.08;1785087;79;21448;-75
2022/03/02 02:16:27;;;;;;;34.48;17.23;;;;;;;0.01;77.57;100272.77;1795227;79;21109;-74
2022/03/02 02:18:57;;;;;;;37.13;17.85;;;;;;;0.01;77.61;100280.52;1794620;79;21125;-75
2022/03/02 02:21:23;;;;;;;39.10;18.52;;;;;;;-0.03;77.68;100272.69;1810147;78;21057;-75
2022/03/02 02:23:50;;;;;;;35.52;17.75;;;;;;;-0.03;77.80;100273.12;1780111;79;21777;-75
2022/03/02 02:26:19;;;;;;;34.20;17.32;;;;;;;-0.07;77.86;100267.42;1772312;80;21043;-74
2022/03/02 02:28:45;;;;;;;32.25;17.42;;;;;;;-0.09;77.93;100266.09;1766703;80;21108;-74
2022/03/02 02:31:12;;;;;;;33.00;18.05;;;;;;;-0.10;78.10;100269.54;1776779;80;21074;-74
2022/03/02 02:33:38;;;;;;;30.90;17.27;;;;;;;-0.13;78.17;100262.14;1784294;80;21047;-75
2022/03/02 02:36:05;;;;;;;38.78;17.80;;;;;;;-0.13;78.21;100255.24;1782101;80;21403;-74
2022/03/02 02:38:32;;;;;;;42.00;18.73;;;;;;;-0.11;78.29;100252.69;1784662;80;22284;-75
2022/03/02 02:40:58;;;;;;;39.80;18.80;;;;;;;-0.12;78.37;100249.21;1761687;80;21300;-75
2022/03/02 02:43:25;;;;;;;32.45;17.82;;;;;;;-0.11;78.42;100245.80;1756444;80;20978;-75
2022/03/02 02:45:53;;;;;;;34.38;17.90;;;;;;;-0.12;78.46;100232.83;1788390;78;20998;-74
2022/03/02 02:48:19;;;;;;;31.80;17.55;;;;;;;-0.11;78.48;100230.70;1782674;78;22287;-74
2022/03/02 02:50:46;;;;;;;31.48;18.10;;;;;;;-0.09;78.49;100225.13;1792861;78;21051;-75
2022/03/02 02:53:12;;;;;;;30.62;16.40;;;;;;;-0.08;78.49;100225.59;1796284;77;21070;-75
2022/03/02 02:55:40;;;;;;;33.13;17.20;;;;;;;-0.07;78.45;100216.58;1788124;78;21042;-75
2022/03/02 02:58:07;;;;;;;31.90;16.57;;;;;;;-0.06;78.46;100220.02;1787726;78;21880;-75
2022/03/02 03:00:36;;;;;;;29.65;16.12;;;;;;;-0.05;78.42;100214.88;1788239;78;21090;-75
2022/03/02 03:03:03;;;;;;;31.33;17.17;;;;;;;-0.03;78.38;100226.56;1790299;79;21073;-75
2022/03/02 03:05:31;;;;;;;33.13;17.80;;;;;;;0.00;78.39;100226.63;1785717;79;21041;-75
2022/03/02 03:08:00;;;;;;;33.48;16.97;;;;;;;0.01;78.36;100237.84;1788679;78;21066;-74
2022/03/02 03:10:27;;;;;;;35.58;17.62;;;;;;;0.01;78.40;100227.48;1807178;79;21208;-74
2022/03/02 03:12:54;;;;;;;34.05;17.00;;;;;;;0.01;78.35;100232.66;1805272;77;22260;-74
2022/03/02 03:15:21;;;;;;;37.67;18.25;;;;;;;-0.03;78.37;100222.25;1801700;77;21148;-75
2022/03/02 03:17:47;;;;;;;35.35;18.40;;;;;;;-0.03;78.39;100218.37;1787313;79;21073;-74
2022/03/02 03:20:17;;;;;;;31.52;16.77;;;;;;;-0.04;78.40;100214.02;1802451;77;21644;-74
2022/03/02 03:22:44;;;;;;;40.05;18.85;;;;;;;-0.02;78.44;100212.77;1806984;78;21093;-75
2022/03/02 03:25:12;;;;;;;38.25;17.50;;;;;;;-0.03;78.45;100211.90;1803688;77;21127;-74
2022/03/02 03:27:39;;;;;;;43.05;18.50;;;;;;;-0.05;78.50;100207.13;1815386;77;21097;-74
2022/03/02 03:30:07;;;;;;;34.63;16.75;;;;;;;-0.06;78.53;100213.13;1811534;77;21113;-75
2022/03/02 03:32:35;;;;;;;36.95;18.02;;;;;;;-0.08;78.56;100209.64;1806967;78;21003;-74
2022/03/02 03:35:03;;;;;;;32.28;17.82;;;;;;;-0.07;78.64;100215.69;1801207;77;21560;-74
2022/03/02 03:37:29;;;;;;;33.23;17.32;;;;;;;-0.08;78.67;100211.38;1798349;78;21128;-75
2022/03/02 03:39:56;;;;;;;33.48;17.85;;;;;;;-0.09;78.75;100204.44;1792416;77;21014;-75
2022/03/02 03:42:25;;;;;;;38.50;19.20;;;;;;;-0.09;78.75;100199.27;1804213;78;21109;-75
2022/03/02 03:44:51;;;;;;;38.45;19.30;;;;;;;-0.09;78.81;100204.01;1808939;77;22604;-74
2022/03/02 03:47:20;;;;;;;36.42;17.82;;;;;;;-0.10;78.81;100193.23;1796915;78;21109;-74
2022/03/02 03:49:46;;;;;;;35.95;18.17;;;;;;;-0.09;78.83;100193.66;1809976;78;21080;-75
2022/03/02 03:52:13;;;;;;;39.13;18.87;;;;;;;-0.08;78.88;100194.13;1809003;77;21105;-75
2022/03/02 03:54:39;;;;;;;39.42;18.70;;;;;;;-0.07;78.87;100189.41;1797304;77;21085;-77
2022/03/02 03:57:06;;;;;;;35.17;19.27;;;;;;;-0.05;78.88;100185.53;1792515;77;21069;-74
2022/03/02 03:59:32;;;;;;;39.58;19.15;;;;;;;-0.04;78.91;100179.53;1793828;78;21490;-74
2022/03/02 04:01:59;;;;;;;37.42;18.70;;;;;;;-0.05;78.88;100170.91;1803484;77;21117;-75
2022/03/02 04:04:26;;;;;;;37.98;17.98;;;;;;;-0.04;78.85;100171.77;1813995;78;21491;-75
2022/03/02 04:06:53;;;;;;;36.77;18.77;;;;;;;-0.05;78.87;100169.61;1809381;77;21085;-75
2022/03/02 04:09:19;;;;;;;35.33;17.95;;;;;;;-0.06;78.90;100165.70;1807184;78;21062;-75
2022/03/02 04:11:45;;;;;;;35.38;18.95;;;;;;;-0.05;78.90;100164.44;1795218;77;21120;-74
2022/03/02 04:14:13;;;;;;;40.10;19.48;;;;;;;-0.02;78.91;100163.20;1806877;77;22253;-75
2022/03/02 04:16:39;;;;;;;34.20;17.98;;;;;;;-0.05;78.92;100157.08;1808014;77;21057;-75
2022/03/02 04:19:06;;;;;;;33.85;18.37;;;;;;;-0.04;78.90;100162.28;1812621;78;21026;-75
2022/03/02 04:21:32;;;;;;;39.78;18.30;;;;;;;-0.05;78.94;100164.44;1799253;77;22278;-75
2022/03/02 04:23:59;;;;;;;33.83;17.45;;;;;;;-0.05;78.94;100157.97;1805651;78;21057;-75
2022/03/02 04:26:25;;;;;;;36.10;18.17;;;;;;;-0.06;78.98;100153.63;1804958;77;21480;-75
2022/03/02 04:28:51;;;;;;;38.20;18.00;;;;;;;-0.02;79.02;100153.26;1802390;77;21114;-75
2022/03/02 04:31:18;;;;;;;30.43;15.35;;;;;;;-0.02;78.93;100150.27;1804305;77;21109;-75
2022/03/02 04:33:44;;;;;;;33.05;18.02;;;;;;;-0.01;78.95;100145.53;1802253;77;21109;-75
2022/03/02 04:36:10;;;;;;;38.92;17.65;;;;;;;0.01;78.92;100143.41;1811480;78;21101;-75
2022/03/02 04:38:37;;;;;;;31.17;16.02;;;;;;;0.01;78.91;100145.56;1793988;77;22485;-75
2022/03/02 04:41:03;;;;;;;30.85;17.65;;;;;;;0.02;78.87;100147.72;1800975;78;21560;-75
2022/03/02 04:43:30;;;;;;;31.40;16.70;;;;;;;0.03;78.84;100144.30;1796746;77;22177;-75
2022/03/02 04:45:57;;;;;;;33.65;17.55;;;;;;;0.04;78.81;100143.47;1801605;78;21069;-75
2022/03/02 04:48:24;;;;;;;33.48;18.17;;;;;;;0.05;78.77;100145.19;1812268;77;21121;-75
2022/03/02 04:50:50;;;;;;;31.75;17.23;;;;;;;0.04;78.77;100144.77;1802757;78;21483;-75
2022/03/02 04:53:17;;;;;;;34.83;17.90;;;;;;;0.02;78.80;100139.55;1800961;77;21148;-75
2022/03/02 04:55:46;;;;;;;34.10;17.23;;;;;;;0.03;78.79;100146.88;1811448;78;21095;-75
2022/03/02 04:58:13;;;;;;;34.23;18.00;;;;;;;0.05;78.80;100146.48;1801711;77;21101;-75
2022/03/02 05:00:39;;;;;;;35.03;17.60;;;;;;;0.04;78.78;100147.34;1802239;78;21140;-76
2022/03/02 05:03:06;;;;;;;34.85;18.80;;;;;;;0.04;78.78;100144.77;1800761;77;21491;-75
2022/03/02 05:05:36;;;;;;;32.78;16.90;;;;;;;0.03;78.82;100146.88;1802739;78;21050;-75
2022/03/02 05:08:03;;;;;;;36.13;18.17;;;;;;;0.02;78.83;100149.01;1797829;77;21144;-75
2022/03/02 05:10:30;;;;;;;32.28;17.70;;;;;;;0.03;78.82;100150.77;1800367;78;21070;-75
2022/03/02 05:12:56;;;;;;;34.08;18.17;;;;;;;0.03;78.81;100153.35;1803598;77;21932;-75
2022/03/02 05:15:22;;;;;;;36.58;18.55;;;;;;;0.04;78.82;100148.64;1811235;77;21560;-79
2022/03/02 05:17:49;;;;;;;31.45;17.85;;;;;;;0.05;78.82;100147.78;1811188;78;21078;-77
2022/03/02 05:20:18;;;;;;;34.05;19.10;;;;;;;0.05;78.85;100148.67;1798794;77;20971;-76
2022/03/02 05:22:45;;;;;;;41.42;19.65;;;;;;;0.04;78.88;100151.23;1798465;78;21580;-75
2022/03/02 05:25:16;;;;;;;35.28;19.15;;;;;;;0.03;78.94;100152.06;1802026;77;21057;-75
2022/03/02 05:27:42;;;;;;;36.53;18.62;;;;;;;0.03;78.94;100144.30;1813685;79;21970;-75
2022/03/02 05:30:10;;;;;;;34.40;16.95;;;;;;;0.03;78.97;100150.34;1795680;77;21041;-76
2022/03/02 05:32:38;;;;;;;33.75;17.27;;;;;;;0.02;79.01;100151.59;1801328;77;21038;-77
2022/03/02 05:35:06;;;;;;;32.50;17.17;;;;;;;0.04;79.01;100151.23;1800505;77;21047;-78
2022/03/02 05:37:33;;;;;;;32.60;17.87;;;;;;;0.03;78.96;100147.75;1803400;79;21061;-78
2022/03/02 05:40:03;;;;;;;35.55;18.25;;;;;;;0.01;79.05;100140.81;1805910;77;21097;-77
2022/03/02 05:42:31;;;;;;;35.30;17.48;;;;;;;0.01;79.12;100144.70;1805662;79;21117;-77
2022/03/02 05:44:57;;;;;;;30.40;17.20;;;;;;;0.01;79.11;100136.94;1796288;77;20983;-74
2022/03/02 05:47:24;;;;;;;38.38;17.62;;;;;;;0.03;79.15;100142.57;1785003;78;21058;-76
2022/03/02 05:49:50;;;;;;;33.38;16.80;;;;;;;0.01;79.18;100135.64;1798869;79;21085;-75
2022/03/02 05:52:18;;;;;;;37.08;19.02;;;;;;;-0.01;79.23;100132.59;1797128;77;21129;-75
2022/03/02 05:54:44;;;;;;;37.38;19.70;;;;;;;0.02;79.36;100137.37;1797328;77;21097;-74
2022/03/02 05:57:11;;;;;;;37.20;21.30;;;;;;;0.02;79.32;100134.78;1806578;77;21085;-75
2022/03/02 05:59:38;;;;;;;34.70;17.80;;;;;;;0.00;79.41;100134.78;1786768;77;21082;-76
2022/03/02 06:02:04;;;;;;;34.15;18.12;;;;;;;-0.02;79.50;100133.86;1789051;77;21026;-76
2022/03/02 06:04:31;;;;;;;32.95;16.90;;;;;;;-0.02;79.50;100134.75;1801532;79;21585;-76
2022/03/02 06:06:57;;;;;;;28.52;16.23;;;;;;;0.03;79.51;100138.69;1806680;78;21050;-74
2022/03/02 06:09:26;;;;;;;27.42;16.00;;;;;;;0.04;79.48;100131.83;1811879;79;21046;-74
2022/03/02 06:11:53;;;;;;;31.60;16.45;;;;;;;0.05;79.48;100140.02;1812962;78;21306;-74
2022/03/02 06:14:20;;;;;;;32.35;16.87;;;;;;;0.06;79.49;100139.19;1805825;77;21085;-74
2022/03/02 06:16:48;;;;;;;25.75;15.78;;;;;;;0.08;79.43;100131.02;1795716;78;22225;-74
2022/03/02 06:19:15;;;;;;;28.65;16.15;;;;;;;0.08;79.41;100127.14;1796827;78;21086;-74
2022/03/02 06:21:43;;;;;;;31.52;16.32;;;;;;;0.10;79.45;100129.33;1803862;78;21034;-78
2022/03/02 06:24:11;;;;;;;30.37;16.32;;;;;;;0.08;79.45;100126.70;1806210;78;21122;-74
2022/03/02 06:26:37;;;;;;;28.67;16.35;;;;;;;0.06;79.43;100126.25;1794069;78;21050;-83
2022/03/02 06:29:04;;;;;;;26.60;15.55;;;;;;;0.07;79.44;100122.80;1813593;78;21076;-76
2022/03/02 06:31:31;;;;;;;30.08;16.77;;;;;;;0.07;79.44;100126.28;1811853;78;21090;-76
2022/03/02 06:33:58;;;;;;;27.90;14.70;;;;;;;0.07;79.62;100117.63;1807494;78;21050;-73
2022/03/02 06:36:24;;;;;;;29.12;14.83;;;;;;;0.06;79.62;100122.37;1811742;78;20971;-76
2022/03/02 06:38:51;;;;;;;36.63;20.23;;;;;;;0.08;79.65;100121.97;1804012;78;21010;-78
2022/03/02 06:41:30;;;;;;;30.62;17.15;;;;;;;0.10;79.67;100121.16;1813235;78;21094;-75
2022/03/02 06:44:16;;;;;;;27.10;15.45;;;;;;;0.12;79.70;100123.78;1813861;78;21098;-74
2022/03/02 06:46:51;;;;;;;24.00;14.03;;;;;;;0.12;79.74;100117.31;1790252;78;21050;-74
2022/03/02 06:49:24;;;;;;;27.50;14.80;;;;;;;0.16;79.72;100112.63;1805156;78;20987;-76
2022/03/02 06:51:54;;;;;;;25.30;14.38;;;;;;;0.18;79.65;100108.34;1814169;78;21056;-74
2022/03/02 06:54:20;;;;;;;26.95;15.45;;;;;;;0.20;79.70;100107.94;1815262;77;21092;-75
2022/03/02 06:56:50;;;;;;;26.45;14.60;;;;;;;0.23;79.72;100109.28;1815132;78;21054;-75
2022/03/02 06:59:22;;;;;;;25.57;15.83;;;;;;;0.22;79.70;100107.56;1806027;78;21062;-79
2022/03/02 07:01:48;;;;;;;25.95;14.70;;;;;;;0.23;79.66;100104.11;1812866;78;21113;-76
2022/03/02 07:04:15;;;;;;;25.82;15.43;;;;;;;0.23;79.56;100100.66;1812485;78;21038;-75
2022/03/02 07:06:41;;;;;;;26.75;15.85;;;;;;;0.21;79.60;100097.19;1808087;78;21652;-75
2022/03/02 07:09:08;;;;;;;26.35;15.18;;;;;;;0.21;79.67;100094.16;1759640;78;21434;-75
2022/03/02 07:11:35;;;;;;;25.72;15.58;;;;;;;0.22;79.69;100090.74;1806259;78;21058;-77
2022/03/02 07:14:01;;;;;;;24.85;15.80;;;;;;;0.25;79.71;100093.35;1816144;77;21054;-77
2022/03/02 07:16:28;;;;;;;26.00;15.13;;;;;;;0.27;79.71;100085.22;1813404;78;21042;-76
2022/03/02 07:18:55;;;;;;;30.15;16.90;;;;;;;0.31;79.76;100091.30;1796769;78;21054;-77
2022/03/02 07:21:25;;;;;;;33.88;17.32;;;;;;;0.32;79.80;100086.16;1792661;78;21775;-75
2022/03/02 07:23:57;;;;;;;27.22;16.87;;;;;;;0.35;79.78;100084.92;1801540;78;21101;-76
2022/03/02 07:26:24;;;;;;;27.73;16.40;;;;;;;0.41;79.73;100091.03;1807129;78;20995;-82
2022/03/02 07:28:50;;;;;;;27.42;16.65;;;;;;;0.40;79.70;100088.84;1833586;78;21455;-77
2022/03/02 07:31:19;;;;;;;28.62;16.80;;;;;;;0.40;79.72;100089.28;1813762;77;21101;-78
2022/03/02 07:33:46;;;;;;;30.12;16.67;;;;;;;0.42;79.80;100089.77;1829180;77;21090;-80
2022/03/02 07:36:13;;;;;;;31.33;17.50;;;;;;;0.45;79.77;100087.20;1801770;78;21117;-76
2022/03/02 07:38:39;;;;;;;28.87;16.15;;;;;;;0.47;79.73;100079.46;1802043;79;21063;-74
2022/03/02 07:41:09;;;;;;;32.00;16.97;;;;;;;0.48;79.72;100081.22;1810789;78;21549;-83
2022/03/02 07:43:37;;;;;;;30.43;17.20;;;;;;;0.49;79.79;100079.95;1811769;78;21186;-81
2022/03/02 07:46:10;;;;;;;28.98;15.95;;;;;;;0.51;79.88;100074.36;1803351;78;21926;-77
2022/03/02 07:50:09;;;;;;;34.80;17.45;;;;;;;0.58;79.77;100070.14;1808843;77;28672;-79
2022/03/02 07:52:37;;;;;;;29.32;16.12;;;;;;;0.52;79.83;100076.11;1768642;80;21696;-78
2022/03/02 07:55:09;;;;;;;32.40;17.73;;;;;;;0.51;79.87;100077.38;1788246;80;21825;-75
2022/03/02 07:57:39;;;;;;;29.10;16.77;;;;;;;0.48;79.92;100079.92;1767572;80;21133;-76
2022/03/02 08:00:09;;;;;;;33.58;17.62;;;;;;;0.47;79.95;100076.88;1776990;80;21070;-76
2022/03/02 08:02:35;;;;;;;32.93;17.62;;;;;;;0.44;80.04;100069.95;1788962;80;20980;-77
2022/03/02 08:05:04;;;;;;;36.68;18.87;;;;;;;0.43;80.11;100074.66;1777064;80;20989;-77
2022/03/02 08:07:30;;;;;;;36.17;17.48;;;;;;;0.44;80.18;100071.64;1787651;80;21233;-76
2022/03/02 08:09:57;;;;;;;31.02;17.23;;;;;;;0.47;80.26;100071.69;1784705;80;21521;-77
2022/03/02 08:12:24;;;;;;;31.25;17.42;;;;;;;0.50;80.32;100062.69;1783660;80;21083;-76
2022/03/02 08:14:50;;;;;;;32.58;17.00;;;;;;;0.53;80.34;100060.14;1757500;80;21065;-76
2022/03/02 08:17:18;;;;;;;29.87;16.20;;;;;;;0.55;80.35;100055.45;1756139;81;21122;-77
2022/03/02 08:19:48;;;;;;;31.80;16.70;;;;;;;0.61;80.36;100053.36;1766900;80;21156;-76
2022/03/02 08:22:19;;;;;;;33.48;17.60;;;;;;;0.67;80.30;100051.27;1785515;80;21080;-76
2022/03/02 08:24:56;;;;;;;29.25;16.77;;;;;;;0.70;80.33;100045.70;1775173;80;21058;-75
2022/03/02 08:27:23;;;;;;;29.30;16.00;;;;;;;0.72;80.37;100038.86;1778289;80;20954;-73
2022/03/02 08:29:56;;;;;;;30.08;15.88;;;;;;;0.72;80.30;100036.27;1781720;79;21029;-74
2022/03/02 08:32:26;;;;;;;33.92;17.57;;;;;;;0.78;80.29;100042.38;1776938;80;21146;-73
2022/03/02 08:34:52;;;;;;;27.75;16.02;;;;;;;0.82;80.30;100039.83;1779322;80;21039;-74
2022/03/02 08:37:19;;;;;;;32.45;16.87;;;;;;;0.84;80.25;100034.66;1784676;80;21050;-74
2022/03/02 08:39:47;;;;;;;30.43;16.23;;;;;;;0.86;80.14;100023.92;1787956;80;21058;-74
2022/03/02 08:42:13;;;;;;;32.98;16.15;;;;;;;0.89;80.09;100026.52;1780419;80;21069;-74
2022/03/02 08:44:40;;;;;;;27.13;15.20;;;;;;;0.96;80.04;100019.30;1781663;80;22181;-74
2022/03/02 08:47:07;;;;;;;27.75;15.30;;;;;;;1.01;79.91;100015.45;1787745;80;21114;-75
2022/03/02 08:49:34;;;;;;;28.73;15.83;;;;;;;1.05;79.86;100012.92;1781745;80;21089;-75
2022/03/02 08:52:02;;;;;;;30.25;16.52;;;;;;;1.09;79.71;100017.30;1776725;80;21457;-75
2022/03/02 08:54:29;;;;;;;26.40;15.00;;;;;;;1.14;79.64;100014.73;1746637;80;21034;-76
2022/03/02 08:56:56;;;;;;;25.82;14.70;;;;;;;1.20;79.51;100010.08;1755262;80;21137;-76
2022/03/02 08:59:22;;;;;;;23.32;13.30;;;;;;;1.24;79.41;100005.35;1777253;80;21058;-76
2022/03/02 09:01:53;;;;;;;26.45;13.95;;;;;;;1.28;79.23;100001.95;1778177;80;21103;-77
2022/03/02 09:04:21;;;;;;;24.35;13.40;;;;;;;1.36;79.13;100004.21;1776771;80;21046;-76
2022/03/02 09:06:48;;;;;;;23.20;13.30;;;;;;;1.41;78.88;99996.05;1771366;80;21117;-77
2022/03/02 09:09:16;;;;;;;27.42;14.23;;;;;;;1.44;78.69;99997.35;1775667;80;21138;-77
2022/03/02 09:11:44;;;;;;;25.45;13.05;;;;;;;1.46;78.64;99990.89;1764922;80;21556;-76
2022/03/02 09:14:11;;;;;;;25.77;13.60;;;;;;;1.46;78.47;99990.48;1774358;80;21094;-76
2022/03/02 09:16:39;;;;;;;24.02;13.78;;;;;;;1.47;78.27;99988.31;1758064;80;21002;-76
2022/03/02 09:19:07;;;;;;;23.52;12.55;;;;;;;1.52;78.22;99987.06;1766043;80;21062;-74
2022/03/02 09:21:34;;;;;;;24.27;13.25;;;;;;;1.56;78.22;99991.41;1771002;80;21116;-75
2022/03/02 09:24:01;;;;;;;23.65;13.88;;;;;;;1.58;78.07;99991.44;1776614;80;21058;-75
2022/03/02 09:26:27;;;;;;;21.50;13.28;;;;;;;1.56;78.03;99989.26;1777398;79;21662;-75
2022/03/02 09:28:54;;;;;;;23.45;12.90;;;;;;;1.57;77.98;99989.72;1772936;80;21056;-75
2022/03/02 09:31:22;;;;;;;20.92;13.13;;;;;;;1.57;77.84;99988.42;1762864;80;21098;-74
2022/03/02 09:33:56;;;;;;;21.55;13.20;;;;;;;1.55;77.85;99986.24;1778070;80;21819;-74
2022/03/02 09:36:24;;;;;;;22.80;13.38;;;;;;;1.56;77.93;99981.04;1772304;80;21577;-74
2022/03/02 09:38:52;;;;;;;22.25;12.82;;;;;;;1.59;77.98;99982.81;1767562;80;21043;-75
2022/03/02 09:41:32;;;;;;;26.07;13.35;;;;;;;1.58;77.78;99982.35;1775221;80;21146;-77
2022/03/02 09:43:59;;;;;;;37.48;19.70;;;;;;;1.57;77.71;99979.34;1762797;80;22317;-75
2022/03/02 09:46:37;;;;;;;55.92;30.45;;;;;;;1.54;77.71;99973.68;1770555;80;21749;-75
2022/03/02 09:49:09;;;;;;;40.15;22.00;;;;;;;1.55;77.81;99964.20;1777257;80;21125;-76
2022/03/02 09:51:40;;;;;;;26.02;14.18;;;;;;;1.59;77.86;99965.95;1771434;80;21098;-75
2022/03/02 09:54:08;;;;;;;19.45;12.45;;;;;;;1.62;77.78;99964.69;1775445;80;21078;-75
2022/03/02 09:56:35;;;;;;;25.12;13.15;;;;;;;1.62;77.85;99964.25;1775466;80;21045;-76
2022/03/02 09:59:07;;;;;;;22.02;11.65;;;;;;;1.63;77.92;99957.33;1777378;80;21543;-76
2022/03/02 10:01:35;;;;;;;24.00;12.20;;;;;;;1.61;77.91;99956.45;1779678;80;21074;-75
2022/03/02 10:04:13;;;;;;;33.38;17.90;;;;;;;1.63;77.93;99953.44;1779581;80;21083;-74
2022/03/02 10:06:43;;;;;;;25.88;14.63;;;;;;;1.67;77.96;99948.73;1770264;80;21075;-74
2022/03/02 10:09:12;;;;;;;24.15;12.58;;;;;;;1.73;77.98;99944.91;1766822;80;21537;-75
2022/03/02 10:11:45;;;;;;;32.05;17.15;;;;;;;1.77;77.93;99945.36;1780027;80;21061;-75
2022/03/02 10:14:12;;;;;;;46.05;25.08;;;;;;;1.81;77.92;99943.21;1768019;80;21137;-75
2022/03/02 10:16:44;;;;;;;29.27;15.35;;;;;;;1.86;77.89;99931.14;1761969;80;21584;-76
2022/03/02 10:19:26;;;;;;;23.27;12.33;;;;;;;1.95;78.00;99928.17;1781064;80;21091;-75
2022/03/02 10:22:06;;;;;;;20.20;11.78;;;;;;;1.96;77.79;99924.73;1750504;81;21054;-75
2022/03/02 10:24:34;;;;;;;19.80;11.83;;;;;;;1.97;77.84;99920.86;1748849;81;21094;-75
2022/03/02 10:27:05;;;;;;;23.42;10.18;;;;;;;1.96;77.72;99919.11;1756749;80;21059;-74
2022/03/02 10:29:43;;;;;;;21.68;11.43;;;;;;;1.95;77.62;99916.09;1773605;80;21043;-75
2022/03/02 10:32:15;;;;;;;20.95;10.90;;;;;;;1.95;77.63;99915.20;1766688;79;21070;-75
2022/03/02 10:34:55;;;;;;;17.07;10.13;;;;;;;1.90;77.70;99911.30;1793545;79;21035;-75
2022/03/02 10:37:37;;;;;;;19.35;10.53;;;;;;;1.91;78.00;99904.38;1762356;79;21625;-75
2022/03/02 10:40:17;;;;;;;17.87;10.93;;;;;;;1.94;77.96;99903.96;1761984;79;21142;-74
2022/03/02 10:42:48;;;;;;;19.82;11.12;;;;;;;2.01;78.02;99895.34;1793458;79;21564;-74
2022/03/02 10:45:23;;;;;;;21.75;11.85;;;;;;;2.06;78.13;99892.79;1759402;79;21082;-75
2022/03/02 10:48:16;;;;;;;21.33;11.35;;;;;;;2.07;78.19;99884.16;1779703;80;21085;-74
2022/03/02 10:50:44;;;;;;;20.45;11.15;;;;;;;2.09;78.43;99887.63;1769576;80;21145;-74
2022/03/02 10:53:20;;;;;;;17.42;11.20;;;;;;;2.13;78.64;99882.88;1767804;80;21090;-76
2022/03/02 10:55:46;;;;;;;16.65;10.80;;;;;;;2.20;78.77;99883.36;1744574;80;21209;-77
2022/03/02 10:58:15;;;;;;;19.37;11.05;;;;;;;2.24;78.62;99876.45;1772047;80;21507;-78
2022/03/02 11:00:43;;;;;;;20.43;11.38;;;;;;;2.25;78.39;99874.72;1768624;80;21059;-78
2022/03/02 11:03:09;;;;;;;17.17;10.53;;;;;;;2.23;78.04;99869.08;1777378;80;21155;-77
2022/03/02 11:05:36;;;;;;;18.92;10.65;;;;;;;2.22;77.74;99871.25;1743257;80;21094;-79
2022/03/02 11:08:04;;;;;;;14.25;9.55;;;;;;;2.18;77.76;99862.99;1768615;80;21094;-80
2022/03/02 11:10:37;;;;;;;14.93;9.35;;;;;;;2.16;77.73;99866.02;1759597;80;21652;-79
2022/03/02 11:13:10;;;;;;;15.78;9.20;;;;;;;2.16;77.71;99856.93;1770466;80;21483;-77
2022/03/02 11:15:58;;;;;;;15.88;9.08;;;;;;;2.14;77.61;99858.66;1745015;80;21026;-80
2022/03/02 11:18:50;;;;;;;14.73;9.35;;;;;;;2.17;77.68;99858.68;1770291;80;21026;-78
2022/03/02 11:21:21;;;;;;;16.40;9.53;;;;;;;2.19;77.93;99856.95;1769336;80;21718;-77
2022/03/02 11:23:54;;;;;;;16.73;10.10;;;;;;;2.23;78.21;99852.20;1757857;80;21055;-78